Terminal Aerodrome Forecast
Issued by NWS Portland, OR

Home | Current Version | Previous Version | Text Only | Print | Product List | Glossary On
Versions: 1 2 3 4 5 6 7 8 9 10 11 12 13 14 15 16 17 18 19
000
FTUS46 KPQR 292343
TAFTTD
TAF
KTTD 292343Z 3000/3024 22006KT P6SM BKN060 OVC090
     FM300400 20010KT P6SM -RA SCT040 OVC080
     FM300530 20013KT P6SM -RA SCT025 OVC040
     FM300700 21010KT P6SM -SHRA BKN015 OVC025
     FM301400 29007KT P6SM VCSH SCT018 BKN030
     FM302000 25005KT P6SM SCT025 BKN040=

USA.gov is the U.S. government's official web portal to all federal, state and local government web resources and services.